Williams Bay, Wisconsin
Current Conditions -  °F | °C
As of 12:15 AM on Saturday 29 Nov 2014 (Local Time) from KBUU Reporting Station
Haze Haze  
Wind Chill: 22°   Ceiling: Unl
Heat Index: 28°   Visibility: 5mi
Dew Point: 27°   Wind: 5mph
Humidity: 96%   Direction: 130°SE
Pressure: 29.82"   Gusts: NA
Location:  42.58°N, 88.54°W
Report Text: KBUU 290615Z AUTO 13004KT 5SM BR CLR M02/M03 A2982 RMK AO2 T10251030
Loading
Personal Weather Stations






























Interactive Weather Map New forecast layout! Learn more

10-Day Weather Forecast

Advertisements
Track Severe Weather on mobile